sensor_id;sensor_type;location;lat;lon;timestamp;P1;durP1;ratioP1;P2;durP2;ratioP2
74851;SDS011;63400;50.650;6.832;2023-09-07T00:01:16;5.97;;;3.22;;
74851;SDS011;63400;50.650;6.832;2023-09-07T00:03:41;6.65;;;3.42;;
74851;SDS011;63400;50.650;6.832;2023-09-07T00:06:07;7.35;;;3.42;;
74851;SDS011;63400;50.650;6.832;2023-09-07T00:08:33;8.55;;;3.55;;
74851;SDS011;63400;50.650;6.832;2023-09-07T00:11:05;6.95;;;3.05;;
74851;SDS011;63400;50.650;6.832;2023-09-07T00:13:31;7.63;;;3.72;;
74851;SDS011;63400;50.650;6.832;2023-09-07T00:16:00;6.70;;;3.22;;
74851;SDS011;63400;50.650;6.832;2023-09-07T00:18:26;7.97;;;3.25;;
74851;SDS011;63400;50.650;6.832;2023-09-07T00:20:52;7.32;;;2.90;;
74851;SDS011;63400;50.650;6.832;2023-09-07T00:23:18;8.43;;;3.15;;
74851;SDS011;63400;50.650;6.832;2023-09-07T00:25:44;7.97;;;4.10;;
74851;SDS011;63400;50.650;6.832;2023-09-07T00:28:10;7.60;;;3.30;;
74851;SDS011;63400;50.650;6.832;2023-09-07T00:30:36;7.65;;;2.92;;
74851;SDS011;63400;50.650;6.832;2023-09-07T00:33:01;8.32;;;3.72;;
74851;SDS011;63400;50.650;6.832;2023-09-07T00:35:26;8.73;;;3.60;;
74851;SDS011;63400;50.650;6.832;2023-09-07T00:37:52;7.15;;;3.30;;
74851;SDS011;63400;50.650;6.832;2023-09-07T00:40:17;6.18;;;3.25;;
74851;SDS011;63400;50.650;6.832;2023-09-07T00:42:43;6.97;;;3.38;;
74851;SDS011;63400;50.650;6.832;2023-09-07T00:45:08;6.68;;;3.75;;
74851;SDS011;63400;50.650;6.832;2023-09-07T00:47:34;7.65;;;3.60;;
74851;SDS011;63400;50.650;6.832;2023-09-07T00:50:01;6.72;;;3.25;;
74851;SDS011;63400;50.650;6.832;2023-09-07T00:52:28;9.38;;;3.67;;
74851;SDS011;63400;50.650;6.832;2023-09-07T00:54:53;6.82;;;3.55;;
74851;SDS011;63400;50.650;6.832;2023-09-07T00:57:19;7.93;;;3.63;;
74851;SDS011;63400;50.650;6.832;2023-09-07T00:59:44;7.13;;;3.47;;
74851;SDS011;63400;50.650;6.832;2023-09-07T01:02:10;6.60;;;3.40;;
74851;SDS011;63400;50.650;6.832;2023-09-07T01:04:36;7.65;;;2.83;;
74851;SDS011;63400;50.650;6.832;2023-09-07T01:09:40;6.55;;;3.33;;
74851;SDS011;63400;50.650;6.832;2023-09-07T01:12:06;6.97;;;3.95;;
74851;SDS011;63400;50.650;6.832;2023-09-07T01:14:35;6.57;;;2.92;;
74851;SDS011;63400;50.650;6.832;2023-09-07T01:17:01;7.60;;;3.55;;
74851;SDS011;63400;50.650;6.832;2023-09-07T01:19:28;7.55;;;3.28;;
74851;SDS011;63400;50.650;6.832;2023-09-07T01:21:53;8.00;;;3.65;;
74851;SDS011;63400;50.650;6.832;2023-09-07T01:24:19;9.43;;;3.60;;
74851;SDS011;63400;50.650;6.832;2023-09-07T01:26:46;8.88;;;3.33;;
74851;SDS011;63400;50.650;6.832;2023-09-07T01:29:14;7.32;;;3.45;;
74851;SDS011;63400;50.650;6.832;2023-09-07T01:31:41;7.68;;;3.72;;
74851;SDS011;63400;50.650;6.832;2023-09-07T01:34:07;8.73;;;3.92;;
74851;SDS011;63400;50.650;6.832;2023-09-07T01:36:33;8.25;;;3.55;;
74851;SDS011;63400;50.650;6.832;2023-09-07T01:38:59;8.35;;;3.70;;
74851;SDS011;63400;50.650;6.832;2023-09-07T01:41:25;9.43;;;4.20;;
74851;SDS011;63400;50.650;6.832;2023-09-07T01:43:50;8.45;;;4.50;;
74851;SDS011;63400;50.650;6.832;2023-09-07T01:46:16;8.95;;;4.18;;
74851;SDS011;63400;50.650;6.832;2023-09-07T01:48:41;6.97;;;3.85;;
74851;SDS011;63400;50.650;6.832;2023-09-07T01:51:07;6.88;;;3.47;;
74851;SDS011;63400;50.650;6.832;2023-09-07T01:53:33;7.82;;;3.58;;
74851;SDS011;63400;50.650;6.832;2023-09-07T01:55:58;8.10;;;3.45;;
74851;SDS011;63400;50.650;6.832;2023-09-07T01:58:24;10.57;;;3.88;;
74851;SDS011;63400;50.650;6.832;2023-09-07T02:00:50;7.07;;;3.17;;
74851;SDS011;63400;50.650;6.832;2023-09-07T02:03:15;7.10;;;3.20;;
74851;SDS011;63400;50.650;6.832;2023-09-07T02:05:41;8.80;;;4.18;;
74851;SDS011;63400;50.650;6.832;2023-09-07T02:08:06;8.98;;;4.60;;
74851;SDS011;63400;50.650;6.832;2023-09-07T02:10:33;8.35;;;4.15;;
74851;SDS011;63400;50.650;6.832;2023-09-07T02:12:58;7.45;;;3.55;;
74851;SDS011;63400;50.650;6.832;2023-09-07T02:15:24;8.70;;;3.72;;
74851;SDS011;63400;50.650;6.832;2023-09-07T02:17:49;8.65;;;4.43;;
74851;SDS011;63400;50.650;6.832;2023-09-07T02:20:15;8.18;;;4.03;;
74851;SDS011;63400;50.650;6.832;2023-09-07T02:22:40;7.25;;;3.72;;
74851;SDS011;63400;50.650;6.832;2023-09-07T02:25:06;5.53;;;3.22;;
74851;SDS011;63400;50.650;6.832;2023-09-07T02:27:32;8.57;;;4.20;;
74851;SDS011;63400;50.650;6.832;2023-09-07T02:29:58;7.07;;;3.90;;
74851;SDS011;63400;50.650;6.832;2023-09-07T02:32:23;8.98;;;3.63;;
74851;SDS011;63400;50.650;6.832;2023-09-07T02:34:49;6.55;;;2.92;;
74851;SDS011;63400;50.650;6.832;2023-09-07T02:37:14;8.45;;;3.65;;
74851;SDS011;63400;50.650;6.832;2023-09-07T02:39:41;6.72;;;3.15;;
74851;SDS011;63400;50.650;6.832;2023-09-07T02:42:07;9.60;;;3.72;;
74851;SDS011;63400;50.650;6.832;2023-09-07T02:44:32;8.27;;;3.38;;
74851;SDS011;63400;50.650;6.832;2023-09-07T02:46:58;5.75;;;3.50;;
74851;SDS011;63400;50.650;6.832;2023-09-07T02:49:23;8.48;;;3.72;;
74851;SDS011;63400;50.650;6.832;2023-09-07T02:51:48;8.02;;;3.75;;
74851;SDS011;63400;50.650;6.832;2023-09-07T02:54:14;8.55;;;3.67;;
74851;SDS011;63400;50.650;6.832;2023-09-07T02:56:39;7.35;;;2.95;;
74851;SDS011;63400;50.650;6.832;2023-09-07T02:59:04;6.25;;;3.40;;
74851;SDS011;63400;50.650;6.832;2023-09-07T03:01:30;8.10;;;3.28;;
74851;SDS011;63400;50.650;6.832;2023-09-07T03:03:56;7.63;;;3.63;;
74851;SDS011;63400;50.650;6.832;2023-09-07T03:06:21;8.32;;;3.28;;
74851;SDS011;63400;50.650;6.832;2023-09-07T03:08:46;5.97;;;2.50;;
74851;SDS011;63400;50.650;6.832;2023-09-07T03:11:12;5.03;;;2.55;;
74851;SDS011;63400;50.650;6.832;2023-09-07T03:13:38;6.72;;;2.75;;
74851;SDS011;63400;50.650;6.832;2023-09-07T03:16:03;6.28;;;2.47;;
74851;SDS011;63400;50.650;6.832;2023-09-07T03:18:29;7.00;;;3.25;;
74851;SDS011;63400;50.650;6.832;2023-09-07T03:20:55;7.82;;;3.53;;
74851;SDS011;63400;50.650;6.832;2023-09-07T03:23:23;7.88;;;3.05;;
74851;SDS011;63400;50.650;6.832;2023-09-07T03:25:48;8.02;;;3.70;;
74851;SDS011;63400;50.650;6.832;2023-09-07T03:28:13;8.90;;;3.50;;
74851;SDS011;63400;50.650;6.832;2023-09-07T03:30:39;7.13;;;3.60;;
74851;SDS011;63400;50.650;6.832;2023-09-07T03:33:05;7.55;;;2.78;;
74851;SDS011;63400;50.650;6.832;2023-09-07T03:35:31;8.88;;;3.13;;
74851;SDS011;63400;50.650;6.832;2023-09-07T03:37:56;6.60;;;2.70;;
74851;SDS011;63400;50.650;6.832;2023-09-07T03:40:22;13.90;;;3.80;;
74851;SDS011;63400;50.650;6.832;2023-09-07T03:42:47;8.82;;;3.10;;
74851;SDS011;63400;50.650;6.832;2023-09-07T03:45:12;9.48;;;2.85;;
74851;SDS011;63400;50.650;6.832;2023-09-07T03:47:38;6.22;;;2.88;;
74851;SDS011;63400;50.650;6.832;2023-09-07T03:50:04;9.65;;;3.55;;
74851;SDS011;63400;50.650;6.832;2023-09-07T03:52:29;9.32;;;3.08;;
74851;SDS011;63400;50.650;6.832;2023-09-07T03:54:55;6.97;;;3.13;;
74851;SDS011;63400;50.650;6.832;2023-09-07T03:57:21;7.18;;;3.33;;
74851;SDS011;63400;50.650;6.832;2023-09-07T03:59:47;7.38;;;3.00;;
74851;SDS011;63400;50.650;6.832;2023-09-07T04:02:13;6.63;;;2.97;;
74851;SDS011;63400;50.650;6.832;2023-09-07T04:04:39;7.07;;;2.88;;
74851;SDS011;63400;50.650;6.832;2023-09-07T04:07:05;8.65;;;2.95;;
74851;SDS011;63400;50.650;6.832;2023-09-07T04:09:30;6.63;;;2.88;;
74851;SDS011;63400;50.650;6.832;2023-09-07T04:11:56;7.38;;;3.30;;
74851;SDS011;63400;50.650;6.832;2023-09-07T04:14:21;10.85;;;3.70;;
74851;SDS011;63400;50.650;6.832;2023-09-07T04:16:47;5.70;;;2.95;;
74851;SDS011;63400;50.650;6.832;2023-09-07T04:19:12;8.18;;;2.95;;
74851;SDS011;63400;50.650;6.832;2023-09-07T04:21:37;7.97;;;3.17;;
74851;SDS011;63400;50.650;6.832;2023-09-07T04:24:04;6.45;;;3.30;;
74851;SDS011;63400;50.650;6.832;2023-09-07T04:26:29;7.15;;;3.28;;
74851;SDS011;63400;50.650;6.832;2023-09-07T04:28:55;12.32;;;3.55;;
74851;SDS011;63400;50.650;6.832;2023-09-07T04:31:20;6.43;;;3.03;;
74851;SDS011;63400;50.650;6.832;2023-09-07T04:33:46;6.97;;;3.25;;
74851;SDS011;63400;50.650;6.832;2023-09-07T04:36:13;7.63;;;3.20;;
74851;SDS011;63400;50.650;6.832;2023-09-07T04:38:39;9.98;;;3.40;;
74851;SDS011;63400;50.650;6.832;2023-09-07T04:41:06;6.78;;;3.03;;
74851;SDS011;63400;50.650;6.832;2023-09-07T04:45:58;7.85;;;3.08;;
74851;SDS011;63400;50.650;6.832;2023-09-07T04:48:23;5.50;;;3.03;;
74851;SDS011;63400;50.650;6.832;2023-09-07T04:50:49;7.53;;;3.03;;
74851;SDS011;63400;50.650;6.832;2023-09-07T04:53:27;11.32;;;3.50;;
74851;SDS011;63400;50.650;6.832;2023-09-07T04:55:53;9.77;;;3.08;;
74851;SDS011;63400;50.650;6.832;2023-09-07T04:58:19;8.48;;;2.88;;
74851;SDS011;63400;50.650;6.832;2023-09-07T05:00:44;8.82;;;3.20;;
74851;SDS011;63400;50.650;6.832;2023-09-07T05:03:09;7.20;;;2.90;;
74851;SDS011;63400;50.650;6.832;2023-09-07T05:05:35;7.97;;;3.15;;
74851;SDS011;63400;50.650;6.832;2023-09-07T05:08:00;7.35;;;3.00;;
74851;SDS011;63400;50.650;6.832;2023-09-07T05:10:26;11.43;;;3.45;;
74851;SDS011;63400;50.650;6.832;2023-09-07T05:12:52;7.75;;;3.20;;
74851;SDS011;63400;50.650;6.832;2023-09-07T05:15:17;7.47;;;3.15;;
74851;SDS011;63400;50.650;6.832;2023-09-07T05:17:43;8.05;;;3.25;;
74851;SDS011;63400;50.650;6.832;2023-09-07T05:20:08;7.70;;;3.28;;
74851;SDS011;63400;50.650;6.832;2023-09-07T05:22:34;8.23;;;3.05;;
74851;SDS011;63400;50.650;6.832;2023-09-07T05:25:02;8.60;;;4.03;;
74851;SDS011;63400;50.650;6.832;2023-09-07T05:27:28;14.15;;;5.53;;
74851;SDS011;63400;50.650;6.832;2023-09-07T05:29:53;10.15;;;3.95;;
74851;SDS011;63400;50.650;6.832;2023-09-07T05:32:19;11.02;;;3.63;;
74851;SDS011;63400;50.650;6.832;2023-09-07T05:34:44;7.55;;;3.63;;
74851;SDS011;63400;50.650;6.832;2023-09-07T05:37:09;7.38;;;3.67;;
74851;SDS011;63400;50.650;6.832;2023-09-07T05:39:35;7.40;;;3.42;;
74851;SDS011;63400;50.650;6.832;2023-09-07T05:42:00;24.00;;;9.02;;
74851;SDS011;63400;50.650;6.832;2023-09-07T05:44:26;14.15;;;6.07;;
74851;SDS011;63400;50.650;6.832;2023-09-07T05:46:51;20.42;;;8.18;;
74851;SDS011;63400;50.650;6.832;2023-09-07T05:49:17;7.15;;;2.65;;
74851;SDS011;63400;50.650;6.832;2023-09-07T05:51:42;6.93;;;3.17;;
74851;SDS011;63400;50.650;6.832;2023-09-07T05:54:07;5.35;;;2.47;;
74851;SDS011;63400;50.650;6.832;2023-09-07T05:56:33;6.13;;;2.80;;
74851;SDS011;63400;50.650;6.832;2023-09-07T05:58:59;7.22;;;2.33;;
74851;SDS011;63400;50.650;6.832;2023-09-07T06:01:24;7.57;;;2.88;;
74851;SDS011;63400;50.650;6.832;2023-09-07T06:03:50;9.02;;;2.97;;
74851;SDS011;63400;50.650;6.832;2023-09-07T06:06:15;10.35;;;2.95;;
74851;SDS011;63400;50.650;6.832;2023-09-07T06:08:41;7.85;;;2.42;;
74851;SDS011;63400;50.650;6.832;2023-09-07T06:11:06;6.20;;;2.28;;
74851;SDS011;63400;50.650;6.832;2023-09-07T06:13:31;9.07;;;2.40;;
74851;SDS011;63400;50.650;6.832;2023-09-07T06:15:57;10.70;;;2.85;;
74851;SDS011;63400;50.650;6.832;2023-09-07T06:18:24;6.63;;;2.22;;
74851;SDS011;63400;50.650;6.832;2023-09-07T06:20:49;21.00;;;3.50;;
74851;SDS011;63400;50.650;6.832;2023-09-07T06:23:14;19.33;;;3.10;;
74851;SDS011;63400;50.650;6.832;2023-09-07T06:25:40;5.97;;;2.63;;
74851;SDS011;63400;50.650;6.832;2023-09-07T06:28:06;4.85;;;1.75;;
74851;SDS011;63400;50.650;6.832;2023-09-07T06:30:31;6.65;;;2.35;;
74851;SDS011;63400;50.650;6.832;2023-09-07T06:32:56;6.88;;;2.88;;
74851;SDS011;63400;50.650;6.832;2023-09-07T06:35:22;9.43;;;2.90;;
74851;SDS011;63400;50.650;6.832;2023-09-07T06:37:47;5.80;;;2.53;;
74851;SDS011;63400;50.650;6.832;2023-09-07T06:40:13;5.75;;;2.45;;
74851;SDS011;63400;50.650;6.832;2023-09-07T06:42:40;6.15;;;2.67;;
74851;SDS011;63400;50.650;6.832;2023-09-07T06:45:06;7.07;;;2.47;;
74851;SDS011;63400;50.650;6.832;2023-09-07T06:47:32;7.55;;;2.42;;
74851;SDS011;63400;50.650;6.832;2023-09-07T06:49:57;6.28;;;2.40;;
74851;SDS011;63400;50.650;6.832;2023-09-07T06:52:23;4.85;;;2.53;;
74851;SDS011;63400;50.650;6.832;2023-09-07T06:54:50;23.10;;;3.38;;
74851;SDS011;63400;50.650;6.832;2023-09-07T06:57:17;70.43;;;5.35;;
74851;SDS011;63400;50.650;6.832;2023-09-07T06:59:43;17.48;;;3.35;;
74851;SDS011;63400;50.650;6.832;2023-09-07T07:02:08;5.30;;;2.45;;
74851;SDS011;63400;50.650;6.832;2023-09-07T07:04:34;7.50;;;2.70;;
74851;SDS011;63400;50.650;6.832;2023-09-07T07:07:00;4.97;;;1.90;;
74851;SDS011;63400;50.650;6.832;2023-09-07T07:09:29;5.78;;;2.50;;
74851;SDS011;63400;50.650;6.832;2023-09-07T07:12:01;5.97;;;2.03;;
74851;SDS011;63400;50.650;6.832;2023-09-07T07:14:27;7.18;;;2.45;;
74851;SDS011;63400;50.650;6.832;2023-09-07T07:16:53;4.32;;;2.35;;
74851;SDS011;63400;50.650;6.832;2023-09-07T07:19:18;4.20;;;2.10;;
74851;SDS011;63400;50.650;6.832;2023-09-07T07:21:44;4.95;;;2.10;;
74851;SDS011;63400;50.650;6.832;2023-09-07T07:24:09;4.45;;;1.90;;
74851;SDS011;63400;50.650;6.832;2023-09-07T07:26:35;4.32;;;1.77;;
74851;SDS011;63400;50.650;6.832;2023-09-07T07:29:01;5.15;;;2.40;;
74851;SDS011;63400;50.650;6.832;2023-09-07T07:31:28;3.78;;;2.15;;
74851;SDS011;63400;50.650;6.832;2023-09-07T07:33:54;6.63;;;2.30;;
74851;SDS011;63400;50.650;6.832;2023-09-07T07:36:20;5.07;;;1.98;;
74851;SDS011;63400;50.650;6.832;2023-09-07T07:38:46;5.20;;;1.90;;
74851;SDS011;63400;50.650;6.832;2023-09-07T07:41:11;4.35;;;1.73;;
74851;SDS011;63400;50.650;6.832;2023-09-07T07:43:37;5.47;;;1.92;;
74851;SDS011;63400;50.650;6.832;2023-09-07T07:46:02;5.55;;;1.90;;
74851;SDS011;63400;50.650;6.832;2023-09-07T07:48:27;5.07;;;1.70;;
74851;SDS011;63400;50.650;6.832;2023-09-07T07:50:54;5.75;;;1.88;;
74851;SDS011;63400;50.650;6.832;2023-09-07T07:53:20;4.00;;;1.75;;
74851;SDS011;63400;50.650;6.832;2023-09-07T07:55:45;2.72;;;1.33;;
74851;SDS011;63400;50.650;6.832;2023-09-07T07:58:11;4.00;;;1.60;;
74851;SDS011;63400;50.650;6.832;2023-09-07T08:00:37;8.07;;;2.70;;
74851;SDS011;63400;50.650;6.832;2023-09-07T08:03:03;4.07;;;1.33;;
74851;SDS011;63400;50.650;6.832;2023-09-07T08:05:31;5.43;;;2.35;;
74851;SDS011;63400;50.650;6.832;2023-09-07T08:10:22;5.38;;;1.80;;
74851;SDS011;63400;50.650;6.832;2023-09-07T08:12:48;3.92;;;2.15;;
74851;SDS011;63400;50.650;6.832;2023-09-07T08:15:13;3.15;;;1.52;;
74851;SDS011;63400;50.650;6.832;2023-09-07T08:17:39;4.32;;;1.67;;
74851;SDS011;63400;50.650;6.832;2023-09-07T08:20:05;4.55;;;1.63;;
74851;SDS011;63400;50.650;6.832;2023-09-07T08:22:33;4.50;;;1.92;;
74851;SDS011;63400;50.650;6.832;2023-09-07T08:25:01;4.40;;;1.77;;
74851;SDS011;63400;50.650;6.832;2023-09-07T08:27:27;4.47;;;1.40;;
74851;SDS011;63400;50.650;6.832;2023-09-07T08:29:53;3.22;;;1.92;;
74851;SDS011;63400;50.650;6.832;2023-09-07T08:32:19;3.30;;;1.58;;
74851;SDS011;63400;50.650;6.832;2023-09-07T08:34:44;6.15;;;1.83;;
74851;SDS011;63400;50.650;6.832;2023-09-07T08:37:10;2.72;;;1.38;;
74851;SDS011;63400;50.650;6.832;2023-09-07T08:39:36;3.33;;;1.70;;
74851;SDS011;63400;50.650;6.832;2023-09-07T08:42:04;4.93;;;1.77;;
74851;SDS011;63400;50.650;6.832;2023-09-07T08:44:29;3.60;;;1.35;;
74851;SDS011;63400;50.650;6.832;2023-09-07T08:46:58;3.35;;;1.83;;
74851;SDS011;63400;50.650;6.832;2023-09-07T08:49:25;4.32;;;2.20;;
74851;SDS011;63400;50.650;6.832;2023-09-07T08:51:50;3.38;;;1.63;;
74851;SDS011;63400;50.650;6.832;2023-09-07T08:54:16;3.25;;;1.67;;
74851;SDS011;63400;50.650;6.832;2023-09-07T08:56:43;3.10;;;1.63;;
74851;SDS011;63400;50.650;6.832;2023-09-07T08:59:09;3.10;;;1.48;;
74851;SDS011;63400;50.650;6.832;2023-09-07T09:01:35;4.82;;;2.08;;
74851;SDS011;63400;50.650;6.832;2023-09-07T09:04:02;2.45;;;1.90;;
74851;SDS011;63400;50.650;6.832;2023-09-07T09:06:27;3.97;;;1.70;;
74851;SDS011;63400;50.650;6.832;2023-09-07T09:11:20;3.15;;;1.65;;
74851;SDS011;63400;50.650;6.832;2023-09-07T09:13:47;3.10;;;1.50;;
74851;SDS011;63400;50.650;6.832;2023-09-07T09:16:13;3.03;;;1.20;;
74851;SDS011;63400;50.650;6.832;2023-09-07T09:18:47;4.45;;;2.20;;
74851;SDS011;63400;50.650;6.832;2023-09-07T09:21:17;3.97;;;2.10;;
74851;SDS011;63400;50.650;6.832;2023-09-07T09:23:51;3.72;;;1.88;;
74851;SDS011;63400;50.650;6.832;2023-09-07T09:26:17;3.63;;;1.98;;
74851;SDS011;63400;50.650;6.832;2023-09-07T09:28:43;5.90;;;1.65;;
74851;SDS011;63400;50.650;6.832;2023-09-07T09:31:12;7.30;;;1.90;;
74851;SDS011;63400;50.650;6.832;2023-09-07T09:33:41;3.83;;;1.77;;
74851;SDS011;63400;50.650;6.832;2023-09-07T09:36:07;4.32;;;1.50;;
74851;SDS011;63400;50.650;6.832;2023-09-07T09:38:34;4.85;;;1.83;;
74851;SDS011;63400;50.650;6.832;2023-09-07T09:43:25;4.90;;;1.80;;
74851;SDS011;63400;50.650;6.832;2023-09-07T09:45:51;4.35;;;2.17;;
74851;SDS011;63400;50.650;6.832;2023-09-07T09:48:18;4.45;;;2.33;;
74851;SDS011;63400;50.650;6.832;2023-09-07T09:50:46;3.22;;;2.10;;
74851;SDS011;63400;50.650;6.832;2023-09-07T09:53:13;5.15;;;2.03;;
74851;SDS011;63400;50.650;6.832;2023-09-07T09:55:43;3.40;;;1.52;;
74851;SDS011;63400;50.650;6.832;2023-09-07T09:58:12;5.38;;;2.20;;
74851;SDS011;63400;50.650;6.832;2023-09-07T10:00:38;3.03;;;1.73;;
74851;SDS011;63400;50.650;6.832;2023-09-07T10:03:47;4.45;;;1.92;;
74851;SDS011;63400;50.650;6.832;2023-09-07T10:05:55;2.85;;;1.85;;
74851;SDS011;63400;50.650;6.832;2023-09-07T10:08:21;5.70;;;2.13;;
74851;SDS011;63400;50.650;6.832;2023-09-07T10:10:52;3.85;;;2.33;;
74851;SDS011;63400;50.650;6.832;2023-09-07T10:13:28;5.35;;;1.90;;
74851;SDS011;63400;50.650;6.832;2023-09-07T10:16:04;6.15;;;2.08;;
74851;SDS011;63400;50.650;6.832;2023-09-07T10:18:37;3.40;;;2.38;;
74851;SDS011;63400;50.650;6.832;2023-09-07T10:21:03;4.15;;;2.17;;
74851;SDS011;63400;50.650;6.832;2023-09-07T10:26:02;3.92;;;1.90;;
74851;SDS011;63400;50.650;6.832;2023-09-07T10:28:29;6.45;;;2.00;;
74851;SDS011;63400;50.650;6.832;2023-09-07T10:33:28;4.95;;;2.28;;
74851;SDS011;63400;50.650;6.832;2023-09-07T10:38:19;4.20;;;2.33;;
74851;SDS011;63400;50.650;6.832;2023-09-07T10:40:45;3.92;;;2.03;;
74851;SDS011;63400;50.650;6.832;2023-09-07T10:43:10;2.72;;;1.52;;
74851;SDS011;63400;50.650;6.832;2023-09-07T10:45:36;3.75;;;1.67;;
74851;SDS011;63400;50.650;6.832;2023-09-07T10:48:02;7.90;;;2.42;;
74851;SDS011;63400;50.650;6.832;2023-09-07T10:50:29;4.97;;;2.10;;
74851;SDS011;63400;50.650;6.832;2023-09-07T10:52:54;4.65;;;1.65;;
74851;SDS011;63400;50.650;6.832;2023-09-07T10:55:20;6.88;;;2.08;;
74851;SDS011;63400;50.650;6.832;2023-09-07T10:57:46;7.85;;;2.03;;
74851;SDS011;63400;50.650;6.832;2023-09-07T11:00:12;5.13;;;2.17;;
74851;SDS011;63400;50.650;6.832;2023-09-07T11:02:41;3.85;;;2.05;;
74851;SDS011;63400;50.650;6.832;2023-09-07T11:05:07;4.68;;;1.98;;
74851;SDS011;63400;50.650;6.832;2023-09-07T11:07:33;5.00;;;2.13;;
74851;SDS011;63400;50.650;6.832;2023-09-07T11:09:59;3.88;;;1.58;;
74851;SDS011;63400;50.650;6.832;2023-09-07T11:12:25;3.75;;;1.50;;
74851;SDS011;63400;50.650;6.832;2023-09-07T11:14:50;4.78;;;1.83;;
74851;SDS011;63400;50.650;6.832;2023-09-07T11:17:17;4.22;;;1.73;;
74851;SDS011;63400;50.650;6.832;2023-09-07T11:19:43;3.00;;;1.65;;
74851;SDS011;63400;50.650;6.832;2023-09-07T11:22:11;6.45;;;2.38;;
74851;SDS011;63400;50.650;6.832;2023-09-07T11:24:37;4.72;;;1.52;;
74851;SDS011;63400;50.650;6.832;2023-09-07T11:27:02;4.25;;;2.08;;
74851;SDS011;63400;50.650;6.832;2023-09-07T11:29:30;4.28;;;1.73;;
74851;SDS011;63400;50.650;6.832;2023-09-07T11:32:05;5.63;;;2.30;;
74851;SDS011;63400;50.650;6.832;2023-09-07T11:34:34;9.32;;;2.63;;
74851;SDS011;63400;50.650;6.832;2023-09-07T11:37:01;4.50;;;2.10;;
74851;SDS011;63400;50.650;6.832;2023-09-07T11:39:28;4.57;;;1.88;;
74851;SDS011;63400;50.650;6.832;2023-09-07T11:41:53;4.00;;;1.88;;
74851;SDS011;63400;50.650;6.832;2023-09-07T11:44:20;4.25;;;2.30;;
74851;SDS011;63400;50.650;6.832;2023-09-07T11:46:46;3.95;;;1.70;;
74851;SDS011;63400;50.650;6.832;2023-09-07T11:49:11;7.00;;;1.92;;
74851;SDS011;63400;50.650;6.832;2023-09-07T11:51:37;2.70;;;1.52;;
74851;SDS011;63400;50.650;6.832;2023-09-07T11:54:02;4.38;;;2.15;;
74851;SDS011;63400;50.650;6.832;2023-09-07T11:56:28;5.78;;;2.13;;
74851;SDS011;63400;50.650;6.832;2023-09-07T11:58:53;7.35;;;2.35;;
74851;SDS011;63400;50.650;6.832;2023-09-07T12:01:20;4.13;;;2.00;;
74851;SDS011;63400;50.650;6.832;2023-09-07T12:03:46;4.18;;;1.88;;
74851;SDS011;63400;50.650;6.832;2023-09-07T12:06:12;5.80;;;2.10;;
74851;SDS011;63400;50.650;6.832;2023-09-07T12:08:41;4.97;;;2.33;;
74851;SDS011;63400;50.650;6.832;2023-09-07T12:11:07;4.60;;;2.00;;
74851;SDS011;63400;50.650;6.832;2023-09-07T12:13:33;4.32;;;2.00;;
74851;SDS011;63400;50.650;6.832;2023-09-07T12:15:58;4.70;;;1.98;;
74851;SDS011;63400;50.650;6.832;2023-09-07T12:18:24;2.80;;;1.40;;
74851;SDS011;63400;50.650;6.832;2023-09-07T12:20:49;5.45;;;1.80;;
74851;SDS011;63400;50.650;6.832;2023-09-07T12:23:14;6.05;;;2.30;;
74851;SDS011;63400;50.650;6.832;2023-09-07T12:25:40;4.00;;;1.73;;
74851;SDS011;63400;50.650;6.832;2023-09-07T12:28:05;5.70;;;2.50;;
74851;SDS011;63400;50.650;6.832;2023-09-07T12:30:31;4.78;;;2.00;;
74851;SDS011;63400;50.650;6.832;2023-09-07T12:32:56;6.60;;;2.10;;
74851;SDS011;63400;50.650;6.832;2023-09-07T12:35:21;4.68;;;2.17;;
74851;SDS011;63400;50.650;6.832;2023-09-07T12:37:47;4.53;;;1.95;;
74851;SDS011;63400;50.650;6.832;2023-09-07T12:40:12;4.53;;;1.67;;
74851;SDS011;63400;50.650;6.832;2023-09-07T12:42:38;7.57;;;1.95;;
74851;SDS011;63400;50.650;6.832;2023-09-07T12:45:09;6.88;;;1.92;;
74851;SDS011;63400;50.650;6.832;2023-09-07T12:47:35;5.97;;;1.90;;
74851;SDS011;63400;50.650;6.832;2023-09-07T12:50:01;5.32;;;2.42;;
74851;SDS011;63400;50.650;6.832;2023-09-07T12:52:27;4.38;;;1.63;;
74851;SDS011;63400;50.650;6.832;2023-09-07T12:54:53;5.32;;;2.00;;
74851;SDS011;63400;50.650;6.832;2023-09-07T12:57:19;5.32;;;1.90;;
74851;SDS011;63400;50.650;6.832;2023-09-07T12:59:44;3.92;;;1.52;;
74851;SDS011;63400;50.650;6.832;2023-09-07T13:02:09;6.32;;;2.15;;
74851;SDS011;63400;50.650;6.832;2023-09-07T13:04:35;4.93;;;2.03;;
74851;SDS011;63400;50.650;6.832;2023-09-07T13:07:01;4.53;;;2.25;;
74851;SDS011;63400;50.650;6.832;2023-09-07T13:09:27;6.47;;;2.25;;
74851;SDS011;63400;50.650;6.832;2023-09-07T13:11:52;3.70;;;1.88;;
74851;SDS011;63400;50.650;6.832;2023-09-07T13:14:18;5.93;;;1.92;;
74851;SDS011;63400;50.650;6.832;2023-09-07T13:16:43;4.45;;;2.13;;
74851;SDS011;63400;50.650;6.832;2023-09-07T13:19:09;5.03;;;2.13;;
74851;SDS011;63400;50.650;6.832;2023-09-07T13:21:36;4.25;;;2.40;;
74851;SDS011;63400;50.650;6.832;2023-09-07T13:24:01;4.45;;;2.10;;
74851;SDS011;63400;50.650;6.832;2023-09-07T13:26:27;6.03;;;2.67;;
74851;SDS011;63400;50.650;6.832;2023-09-07T13:28:52;4.90;;;2.05;;
74851;SDS011;63400;50.650;6.832;2023-09-07T13:31:17;4.65;;;2.47;;
74851;SDS011;63400;50.650;6.832;2023-09-07T13:33:43;5.15;;;2.20;;
74851;SDS011;63400;50.650;6.832;2023-09-07T13:36:08;4.13;;;1.90;;
74851;SDS011;63400;50.650;6.832;2023-09-07T13:38:35;3.55;;;2.13;;
74851;SDS011;63400;50.650;6.832;2023-09-07T13:41:01;3.67;;;1.83;;
74851;SDS011;63400;50.650;6.832;2023-09-07T13:43:27;4.75;;;2.10;;
74851;SDS011;63400;50.650;6.832;2023-09-07T13:45:52;5.68;;;2.42;;
74851;SDS011;63400;50.650;6.832;2023-09-07T13:48:18;5.18;;;1.98;;
74851;SDS011;63400;50.650;6.832;2023-09-07T13:50:43;3.92;;;2.03;;
74851;SDS011;63400;50.650;6.832;2023-09-07T13:53:09;5.53;;;2.20;;
74851;SDS011;63400;50.650;6.832;2023-09-07T13:55:34;5.95;;;2.20;;
74851;SDS011;63400;50.650;6.832;2023-09-07T13:58:00;4.72;;;2.28;;
74851;SDS011;63400;50.650;6.832;2023-09-07T14:00:26;5.10;;;2.25;;
74851;SDS011;63400;50.650;6.832;2023-09-07T14:02:51;4.80;;;2.20;;
74851;SDS011;63400;50.650;6.832;2023-09-07T14:05:17;4.22;;;2.30;;
74851;SDS011;63400;50.650;6.832;2023-09-07T14:07:43;5.32;;;1.60;;
74851;SDS011;63400;50.650;6.832;2023-09-07T14:10:08;4.20;;;1.85;;
74851;SDS011;63400;50.650;6.832;2023-09-07T14:12:34;4.63;;;1.88;;
74851;SDS011;63400;50.650;6.832;2023-09-07T14:14:59;4.00;;;1.70;;
74851;SDS011;63400;50.650;6.832;2023-09-07T14:17:25;4.32;;;1.95;;
74851;SDS011;63400;50.650;6.832;2023-09-07T14:19:50;3.95;;;1.83;;
74851;SDS011;63400;50.650;6.832;2023-09-07T14:22:16;6.15;;;2.30;;
74851;SDS011;63400;50.650;6.832;2023-09-07T14:24:41;3.92;;;1.95;;
74851;SDS011;63400;50.650;6.832;2023-09-07T14:27:07;6.25;;;2.42;;
74851;SDS011;63400;50.650;6.832;2023-09-07T14:29:34;7.35;;;2.42;;
74851;SDS011;63400;50.650;6.832;2023-09-07T14:32:00;4.45;;;1.92;;
74851;SDS011;63400;50.650;6.832;2023-09-07T14:34:26;4.28;;;2.10;;
74851;SDS011;63400;50.650;6.832;2023-09-07T14:36:52;4.80;;;2.38;;
74851;SDS011;63400;50.650;6.832;2023-09-07T14:39:17;5.20;;;1.98;;
74851;SDS011;63400;50.650;6.832;2023-09-07T14:41:48;5.80;;;2.30;;
74851;SDS011;63400;50.650;6.832;2023-09-07T14:44:14;4.35;;;2.25;;
74851;SDS011;63400;50.650;6.832;2023-09-07T14:46:39;4.88;;;1.65;;
74851;SDS011;63400;50.650;6.832;2023-09-07T14:49:05;4.03;;;1.92;;
74851;SDS011;63400;50.650;6.832;2023-09-07T14:51:30;4.07;;;2.13;;
74851;SDS011;63400;50.650;6.832;2023-09-07T14:53:56;4.50;;;2.22;;
74851;SDS011;63400;50.650;6.832;2023-09-07T14:56:21;4.60;;;2.63;;
74851;SDS011;63400;50.650;6.832;2023-09-07T14:58:47;3.97;;;2.08;;
74851;SDS011;63400;50.650;6.832;2023-09-07T15:01:12;5.85;;;2.38;;